createdAt,value
2022-09-15T00:01:08.091Z,30.13
2022-09-15T00:03:35.618Z,26.52
2022-09-15T00:06:03.233Z,22.23
2022-09-15T00:08:31.375Z,27.73
2022-09-15T00:11:03.488Z,22.55
2022-09-15T00:13:30.586Z,28.42
2022-09-15T00:15:57.732Z,35.50
2022-09-15T00:18:25.222Z,27.77
2022-09-15T00:20:52.714Z,18.77
2022-09-15T00:23:19.911Z,27.45
2022-09-15T00:25:56.174Z,29.50
2022-09-15T00:28:26.387Z,27.77
2022-09-15T00:30:56.206Z,28.48
2022-09-15T00:33:25.628Z,23.50
2022-09-15T00:35:53.858Z,31.50
2022-09-15T00:38:21.401Z,41.05
2022-09-15T00:40:52.212Z,17.67
2022-09-15T00:43:44.619Z,31.60
2022-09-15T00:46:12.591Z,21.58
2022-09-15T00:48:45.887Z,25.70
2022-09-15T00:51:16.827Z,21.52
2022-09-15T00:53:46.487Z,22.23
2022-09-15T00:56:16.311Z,13.18
2022-09-15T00:58:49.035Z,27.27
2022-09-15T01:01:16.535Z,36.38
2022-09-15T01:03:43.827Z,23.50
2022-09-15T01:06:47.590Z,25.08
2022-09-15T01:09:33.617Z,25.42
2022-09-15T01:12:02.427Z,21.63
2022-09-15T01:14:29.475Z,27.70
2022-09-15T01:17:07.130Z,17.92
2022-09-15T01:19:52.173Z,25.75
2022-09-15T01:22:22.059Z,36.30
2022-09-15T01:25:02.841Z,34.97
2022-09-15T01:27:42.643Z,33.38
2022-09-15T01:30:26.168Z,32.13
2022-09-15T01:35:48.609Z,13.00
2022-09-15T01:38:25.005Z,6.72
2022-09-15T01:41:00.313Z,4.65
2022-09-15T01:43:29.950Z,4.47
2022-09-15T01:45:59.934Z,4.53
2022-09-15T01:48:28.949Z,4.25
2022-09-15T01:51:00.703Z,3.58
2022-09-15T01:53:28.990Z,4.40
2022-09-15T01:56:11.016Z,3.90
2022-09-15T01:58:41.552Z,3.75
2022-09-15T02:01:31.827Z,4.05
2022-09-15T02:04:06.194Z,3.30
2022-09-15T02:07:08.304Z,3.00
2022-09-15T02:09:57.655Z,3.50
2022-09-15T02:12:43.193Z,2.65
2022-09-15T02:15:16.762Z,2.53
2022-09-15T02:17:50.649Z,2.33
2022-09-15T02:20:34.376Z,2.25
2022-09-15T02:23:08.606Z,2.40
2022-09-15T02:25:51.715Z,2.72
2022-09-15T02:30:49.302Z,2.50
2022-09-15T02:33:21.564Z,2.22
2022-09-15T02:35:48.887Z,2.75
2022-09-15T02:38:16.057Z,2.33
2022-09-15T02:40:44.775Z,2.40
2022-09-15T02:43:15.428Z,2.30
2022-09-15T02:45:42.997Z,2.25
2022-09-15T02:48:10.245Z,2.00
2022-09-15T02:50:38.652Z,2.40
2022-09-15T02:53:05.910Z,2.20
2022-09-15T02:55:33.942Z,2.33
2022-09-15T02:58:01.291Z,2.38
2022-09-15T03:00:28.880Z,1.95
2022-09-15T03:02:56.307Z,2.40
2022-09-15T03:05:26.941Z,2.50
2022-09-15T03:07:55.198Z,2.10
2022-09-15T03:10:24.164Z,2.55
2022-09-15T03:12:53.336Z,2.50
2022-09-15T03:15:23.349Z,2.03
2022-09-15T03:17:52.099Z,2.50
2022-09-15T03:20:28.858Z,1.90
2022-09-15T03:22:56.210Z,2.22
2022-09-15T03:25:23.682Z,2.15
2022-09-15T03:27:50.816Z,2.10
2022-09-15T03:30:18.082Z,2.15
2022-09-15T03:32:45.244Z,2.33
2022-09-15T03:35:12.387Z,2.10
2022-09-15T03:37:39.623Z,2.10
2022-09-15T03:40:07.527Z,1.88
2022-09-15T03:42:34.717Z,2.15
2022-09-15T03:45:01.857Z,2.00
2022-09-15T03:47:30.311Z,2.08
2022-09-15T03:49:57.410Z,2.28
2022-09-15T03:52:24.495Z,2.40
2022-09-15T03:54:51.863Z,2.00
2022-09-15T03:57:18.985Z,2.60
2022-09-15T03:59:46.630Z,2.80
2022-09-15T04:02:14.539Z,2.65
2022-09-15T04:04:41.669Z,3.00
2022-09-15T04:07:09.249Z,2.70
2022-09-15T04:09:37.455Z,2.55
2022-09-15T04:12:04.847Z,2.35
2022-09-15T04:14:32.005Z,2.35
2022-09-15T04:16:59.105Z,2.50
2022-09-15T04:19:26.417Z,2.17
2022-09-15T04:21:53.568Z,2.40
2022-09-15T04:24:20.809Z,1.92
2022-09-15T04:26:48.012Z,3.42
2022-09-15T04:29:16.654Z,2.58
2022-09-15T04:31:43.891Z,2.40
2022-09-15T04:34:11.404Z,2.28
2022-09-15T04:36:38.686Z,2.40
2022-09-15T04:39:06.796Z,2.30
2022-09-15T04:41:33.991Z,2.78
2022-09-15T04:44:01.324Z,2.90
2022-09-15T04:46:28.525Z,2.40
2022-09-15T04:48:56.308Z,2.20
2022-09-15T04:51:24.200Z,2.30
2022-09-15T04:53:52.174Z,2.47
2022-09-15T04:56:22.308Z,2.20
2022-09-15T04:59:03.138Z,1.92
2022-09-15T05:01:33.992Z,2.00
2022-09-15T05:04:06.031Z,1.95
2022-09-15T05:06:35.150Z,1.80
2022-09-15T05:09:09.696Z,1.70
2022-09-15T05:11:38.033Z,1.80
2022-09-15T05:14:05.485Z,1.70
2022-09-15T05:16:32.792Z,1.73
2022-09-15T05:19:01.714Z,1.50
2022-09-15T05:21:29.640Z,1.42
2022-09-15T05:23:56.964Z,1.40
2022-09-15T05:26:27.138Z,1.52
2022-09-15T05:28:55.951Z,1.38
2022-09-15T05:31:29.180Z,1.33
2022-09-15T05:33:56.907Z,1.20
2022-09-15T05:36:27.798Z,1.45
2022-09-15T05:38:58.228Z,1.30
2022-09-15T05:41:26.814Z,1.40
2022-09-15T05:43:57.105Z,1.15
2022-09-15T05:46:28.197Z,1.42
2022-09-15T05:48:59.274Z,1.67
2022-09-15T05:51:26.843Z,1.50
2022-09-15T05:53:54.034Z,1.33
2022-09-15T05:56:21.210Z,1.20
2022-09-15T05:58:49.605Z,1.20
2022-09-15T06:01:28.542Z,1.30
2022-09-15T06:03:57.282Z,1.30
2022-09-15T06:06:25.967Z,1.48
2022-09-15T06:08:58.362Z,1.50
2022-09-15T06:11:28.991Z,1.45
2022-09-15T06:13:59.009Z,1.50
2022-09-15T06:16:26.912Z,1.40
2022-09-15T06:18:54.487Z,1.35
2022-09-15T06:21:27.206Z,1.23
2022-09-15T06:23:56.043Z,1.60
2022-09-15T06:26:24.051Z,1.60
2022-09-15T06:28:52.671Z,1.20
2022-09-15T06:31:21.377Z,1.85
2022-09-15T06:33:51.884Z,1.52
2022-09-15T06:36:21.285Z,1.50
2022-09-15T06:38:48.887Z,1.80
2022-09-15T06:41:16.811Z,1.38
2022-09-15T06:43:45.134Z,1.50
2022-09-15T06:46:15.160Z,1.90
2022-09-15T06:48:46.345Z,1.52
2022-09-15T06:51:18.419Z,1.65
2022-09-15T06:53:47.069Z,1.95
2022-09-15T06:56:17.390Z,1.90
2022-09-15T06:58:45.618Z,1.77
2022-09-15T07:01:24.218Z,1.73
2022-09-15T07:03:52.252Z,2.03
2022-09-15T07:06:19.735Z,1.90
2022-09-15T07:08:47.421Z,2.05
2022-09-15T07:11:14.671Z,1.92
2022-09-15T07:13:42.723Z,2.20
2022-09-15T07:16:13.245Z,1.83
2022-09-15T07:18:43.565Z,2.03
2022-09-15T07:21:16.831Z,2.28
2022-09-15T07:23:44.771Z,2.35
2022-09-15T07:26:20.483Z,3.00
2022-09-15T07:28:54.202Z,2.60
2022-09-15T07:31:23.683Z,2.80
2022-09-15T07:33:51.144Z,2.25
2022-09-15T07:36:18.919Z,2.25
2022-09-15T07:38:48.561Z,1.98
2022-09-15T07:41:18.757Z,1.95
2022-09-15T07:43:49.953Z,2.20
2022-09-15T07:46:18.930Z,2.20
2022-09-15T07:48:51.728Z,2.60
2022-09-15T07:51:19.705Z,2.20
2022-09-15T07:54:02.396Z,1.90
2022-09-15T07:56:29.533Z,2.83
2022-09-15T07:58:57.136Z,2.50
2022-09-15T08:01:24.327Z,2.45
2022-09-15T08:03:52.677Z,2.38
2022-09-15T08:06:22.793Z,2.05
2022-09-15T08:08:53.983Z,2.15
2022-09-15T08:11:23.714Z,2.55
2022-09-15T08:13:52.485Z,2.35
2022-09-15T08:16:24.228Z,2.45
2022-09-15T08:18:54.944Z,2.20
2022-09-15T08:21:23.313Z,2.22
2022-09-15T08:23:56.289Z,2.95
2022-09-15T08:26:24.647Z,2.75
2022-09-15T08:28:52.693Z,2.65
2022-09-15T08:31:20.370Z,2.60
2022-09-15T08:33:49.874Z,2.97
2022-09-15T08:36:17.431Z,2.47
2022-09-15T08:38:48.214Z,2.53
2022-09-15T08:41:22.736Z,2.60
2022-09-15T08:43:59.506Z,2.80
2022-09-15T08:46:38.382Z,3.25
2022-09-15T08:49:13.486Z,2.75
2022-09-15T08:51:46.382Z,3.10
2022-09-15T08:54:22.371Z,3.03
2022-09-15T08:56:50.479Z,2.95
2022-09-15T08:59:19.528Z,2.72
2022-09-15T09:02:34.659Z,2.95
2022-09-15T09:05:29.615Z,2.58
2022-09-15T09:08:27.180Z,2.88
2022-09-15T09:11:06.474Z,2.90
2022-09-15T09:13:49.761Z,2.70
2022-09-15T09:16:51.485Z,2.50
2022-09-15T09:19:32.211Z,2.50
2022-09-15T09:22:10.755Z,2.75
2022-09-15T09:24:48.546Z,2.75
2022-09-15T09:27:26.645Z,2.80
2022-09-15T09:30:12.548Z,2.38
2022-09-15T09:32:47.888Z,2.40
2022-09-15T09:35:45.121Z,2.60
2022-09-15T09:38:18.513Z,2.83
2022-09-15T09:40:45.826Z,2.67
2022-09-15T09:43:13.205Z,2.30
2022-09-15T09:45:40.548Z,2.90
2022-09-15T09:48:23.013Z,2.97
2022-09-15T09:50:50.955Z,3.10
2022-09-15T09:53:32.920Z,3.67
2022-09-15T09:56:26.851Z,2.80
2022-09-15T09:58:54.731Z,3.33
2022-09-15T10:01:25.518Z,2.83
2022-09-15T10:04:17.993Z,3.45
2022-09-15T10:06:45.577Z,3.40
2022-09-15T10:09:18.310Z,3.20
2022-09-15T10:14:35.366Z,3.80
2022-09-15T10:17:36.622Z,3.50
2022-09-15T10:20:07.506Z,3.85
2022-09-15T10:22:34.596Z,3.63
2022-09-15T10:25:23.484Z,3.92
2022-09-15T10:28:11.003Z,3.88
2022-09-15T10:30:38.865Z,3.70
2022-09-15T10:33:23.761Z,3.60
2022-09-15T10:35:51.911Z,2.95
2022-09-15T10:38:26.505Z,3.38
2022-09-15T10:41:09.538Z,3.15
2022-09-15T10:44:05.733Z,3.00
2022-09-15T10:47:10.241Z,3.17
2022-09-15T10:49:56.074Z,3.08
2022-09-15T10:52:47.121Z,2.85
2022-09-15T10:55:36.778Z,3.25
2022-09-15T10:58:21.760Z,3.05
2022-09-15T11:01:01.646Z,3.10
2022-09-15T11:03:43.589Z,3.40
2022-09-15T11:06:43.846Z,2.97
2022-09-15T11:09:14.076Z,3.20
2022-09-15T11:12:16.845Z,3.30
2022-09-15T11:14:50.545Z,3.50
2022-09-15T11:17:29.953Z,3.00
2022-09-15T11:20:04.047Z,3.30
2022-09-15T11:22:38.653Z,3.70
2022-09-15T11:25:17.096Z,3.60
2022-09-15T11:28:00.213Z,3.60
2022-09-15T11:30:37.354Z,3.40
2022-09-15T11:33:15.487Z,3.75
2022-09-15T11:35:57.584Z,3.70
2022-09-15T11:39:28.410Z,3.80
2022-09-15T11:42:08.319Z,5.00
2022-09-15T11:44:39.411Z,5.30
2022-09-15T11:47:28.771Z,4.85
2022-09-15T11:50:10.928Z,4.88
2022-09-15T11:52:59.162Z,5.10
2022-09-15T11:55:35.880Z,5.60
2022-09-15T11:58:32.564Z,5.28
2022-09-15T12:01:07.388Z,5.70
2022-09-15T12:03:52.875Z,5.38
2022-09-15T12:06:56.647Z,5.63
2022-09-15T12:09:23.955Z,6.22
2022-09-15T12:12:04.823Z,5.68
2022-09-15T12:14:36.026Z,5.68
2022-09-15T12:17:13.755Z,5.85
2022-09-15T12:20:11.074Z,5.22
2022-09-15T12:22:47.223Z,5.60
2022-09-15T12:25:25.298Z,5.35
2022-09-15T12:28:24.129Z,5.47
2022-09-15T12:31:30.405Z,5.47
2022-09-15T12:34:05.528Z,5.90
2022-09-15T12:36:40.102Z,5.85
2022-09-15T12:39:22.655Z,5.22
2022-09-15T12:41:53.874Z,4.53
2022-09-15T12:44:32.297Z,4.50
2022-09-15T12:47:00.600Z,3.65
2022-09-15T12:49:42.170Z,3.90
2022-09-15T12:52:10.484Z,4.00
2022-09-15T12:54:41.062Z,3.53
2022-09-15T12:57:20.770Z,3.95
2022-09-15T12:59:47.966Z,3.90
2022-09-15T13:02:50.758Z,3.95
2022-09-15T13:05:42.943Z,3.60
2022-09-15T13:08:12.438Z,3.65
2022-09-15T13:10:43.692Z,3.42
2022-09-15T13:13:20.389Z,3.67
2022-09-15T13:15:50.772Z,3.60
2022-09-15T13:18:20.487Z,3.83
2022-09-15T13:20:58.230Z,3.40
2022-09-15T13:23:29.283Z,3.22
2022-09-15T13:25:59.930Z,3.58
2022-09-15T13:28:27.681Z,3.33
2022-09-15T13:30:57.762Z,3.22
2022-09-15T13:39:40.347Z,3.00
2022-09-15T13:42:44.658Z,3.47
2022-09-15T13:45:46.999Z,3.13
2022-09-15T13:48:17.057Z,3.00
2022-09-15T13:51:01.245Z,2.90
2022-09-15T13:53:37.589Z,3.20
2022-09-15T13:56:09.157Z,3.33
2022-09-15T14:01:25.443Z,3.65
2022-09-15T14:03:55.089Z,3.38
2022-09-15T14:06:33.901Z,3.45
2022-09-15T14:09:06.657Z,3.65
2022-09-15T14:14:03.506Z,4.10
2022-09-15T14:16:34.036Z,3.42
2022-09-15T14:19:04.072Z,4.60
2022-09-15T14:21:33.697Z,3.70
2022-09-15T14:24:16.182Z,3.67
2022-09-15T14:26:43.561Z,3.88
2022-09-15T14:29:18.915Z,3.55
2022-09-15T14:31:48.196Z,3.45
2022-09-15T14:34:19.708Z,3.60
2022-09-15T14:36:59.490Z,4.10
2022-09-15T14:39:26.608Z,3.38
2022-09-15T14:41:53.839Z,3.92
2022-09-15T14:47:28.121Z,3.58
2022-09-15T14:50:09.954Z,3.60
2022-09-15T14:53:00.954Z,3.17
2022-09-15T14:55:33.134Z,3.50
2022-09-15T14:59:02.078Z,3.08
2022-09-15T15:01:37.094Z,3.33
2022-09-15T15:04:29.069Z,2.83
2022-09-15T15:07:22.874Z,3.00
2022-09-15T15:10:02.298Z,3.15
2022-09-15T15:12:39.948Z,3.50
2022-09-15T15:15:07.815Z,2.85
2022-09-15T15:17:37.113Z,3.38
2022-09-15T15:20:10.609Z,2.40
2022-09-15T15:22:39.788Z,3.10
2022-09-15T15:25:37.372Z,3.35
2022-09-15T15:28:06.159Z,2.90
2022-09-15T15:30:36.642Z,2.83
2022-09-15T15:33:19.921Z,3.20
2022-09-15T15:35:48.823Z,2.75
2022-09-15T15:38:18.519Z,2.22
2022-09-15T15:40:46.980Z,2.17
2022-09-15T15:43:14.064Z,1.80
2022-09-15T15:46:03.256Z,1.85
2022-09-15T15:48:36.914Z,1.83
2022-09-15T15:51:06.761Z,1.65
2022-09-15T15:53:34.523Z,2.13
2022-09-15T15:56:02.066Z,1.80
2022-09-15T15:58:29.144Z,2.00
2022-09-15T16:00:57.219Z,2.10
2022-09-15T16:03:25.965Z,2.58
2022-09-15T16:06:03.128Z,2.13
2022-09-15T16:08:38.275Z,2.22
2022-09-15T16:11:08.704Z,1.85
2022-09-15T16:13:35.997Z,2.33
2022-09-15T16:16:14.106Z,2.10
2022-09-15T16:18:41.418Z,2.20
2022-09-15T16:21:17.432Z,2.40
2022-09-15T16:23:45.156Z,2.00
2022-09-15T16:26:18.180Z,2.40
2022-09-15T16:28:45.414Z,2.70
2022-09-15T16:31:14.222Z,2.53
2022-09-15T16:33:42.636Z,2.58
2022-09-15T16:36:15.558Z,2.85
2022-09-15T16:41:13.346Z,2.63
2022-09-15T16:43:40.563Z,2.92
2022-09-15T16:46:09.543Z,3.67
2022-09-15T16:48:37.386Z,3.70
2022-09-15T16:51:27.994Z,3.45
2022-09-15T16:53:53.077Z,4.05
2022-09-15T16:56:20.198Z,3.38
2022-09-15T16:58:47.325Z,3.80
2022-09-15T17:01:18.448Z,4.30
2022-09-15T17:03:46.359Z,4.10
2022-09-15T17:06:17.904Z,4.43
2022-09-15T17:08:45.402Z,4.25
2022-09-15T17:11:16.858Z,5.07
2022-09-15T17:13:45.004Z,5.22
2022-09-15T17:16:19.447Z,5.32
2022-09-15T17:18:47.117Z,5.28
2022-09-15T17:21:22.520Z,4.78
2022-09-15T17:23:50.260Z,5.32
2022-09-15T17:26:21.260Z,4.60
2022-09-15T17:28:49.392Z,4.13
2022-09-15T17:31:19.711Z,4.05
2022-09-15T17:33:47.671Z,3.65
2022-09-15T17:36:15.606Z,4.03
2022-09-15T17:38:43.125Z,3.97
2022-09-15T17:41:19.292Z,3.35
2022-09-15T17:43:46.929Z,3.58
2022-09-15T17:46:14.341Z,4.75
2022-09-15T17:48:41.891Z,4.07
2022-09-15T17:51:15.296Z,4.28
2022-09-15T17:53:43.399Z,4.22
2022-09-15T17:56:10.643Z,4.05
2022-09-15T17:58:37.869Z,4.70
2022-09-15T18:01:05.192Z,4.50
2022-09-15T18:03:35.122Z,5.00
2022-09-15T18:06:06.463Z,7.65
2022-09-15T18:08:35.963Z,4.85
2022-09-15T18:11:05.367Z,5.20
2022-09-15T18:13:32.824Z,5.25
2022-09-15T18:16:05.926Z,5.57
2022-09-15T18:18:33.768Z,6.75
2022-09-15T18:21:01.268Z,7.80
2022-09-15T18:23:29.665Z,8.35
2022-09-15T18:25:57.712Z,8.10
2022-09-15T18:28:26.824Z,9.25
2022-09-15T18:30:54.429Z,8.13
2022-09-15T18:33:26.171Z,9.88
2022-09-15T18:35:56.842Z,9.60
2022-09-15T18:38:24.420Z,9.38
2022-09-15T18:40:55.457Z,8.48
2022-09-15T18:43:28.041Z,7.75
2022-09-15T18:46:00.001Z,9.07
2022-09-15T18:48:27.590Z,8.55
2022-09-15T18:50:55.293Z,8.57
2022-09-15T18:53:22.900Z,8.30
2022-09-15T18:55:50.321Z,15.40
2022-09-15T19:01:22.064Z,18.23
2022-09-15T19:03:52.543Z,17.00
2022-09-15T19:06:21.947Z,14.10
2022-09-15T19:08:49.104Z,12.40
2022-09-15T19:11:16.307Z,10.45
2022-09-15T19:13:43.701Z,10.93
2022-09-15T19:16:11.212Z,9.15
2022-09-15T19:18:38.534Z,11.02
2022-09-15T19:21:10.860Z,9.30
2022-09-15T19:24:00.830Z,9.52
2022-09-15T19:26:29.655Z,9.25
2022-09-15T19:28:57.752Z,9.10
2022-09-15T19:31:26.248Z,8.70
2022-09-15T19:33:56.399Z,8.88
2022-09-15T19:36:28.319Z,8.50
2022-09-15T19:39:00.510Z,8.15
2022-09-15T19:41:27.746Z,8.27
2022-09-15T19:43:54.967Z,8.50
2022-09-15T19:46:24.492Z,8.98
2022-09-15T19:48:52.961Z,11.23
2022-09-15T19:51:21.829Z,9.93
2022-09-15T19:53:49.462Z,9.38
2022-09-15T19:56:19.907Z,7.65
2022-09-15T19:58:47.252Z,7.70
2022-09-15T20:01:14.995Z,7.40
2022-09-15T20:06:31.666Z,7.85
2022-09-15T20:09:00.015Z,7.03
2022-09-15T20:11:28.330Z,7.32
2022-09-15T20:13:56.392Z,7.30
2022-09-15T20:16:24.877Z,7.32
2022-09-15T20:18:54.086Z,7.90
2022-09-15T20:21:48.656Z,7.95
2022-09-15T20:24:16.190Z,8.13
2022-09-15T20:26:43.375Z,9.30
2022-09-15T20:29:11.320Z,8.15
2022-09-15T20:31:38.704Z,9.13
2022-09-15T20:34:06.074Z,10.00
2022-09-15T20:36:36.295Z,9.63
2022-09-15T20:39:06.509Z,10.05
2022-09-15T20:41:33.658Z,11.15
2022-09-15T20:44:01.875Z,9.75
2022-09-15T20:46:29.492Z,10.32
2022-09-15T20:48:56.575Z,9.73
2022-09-15T20:51:26.271Z,10.65
2022-09-15T20:53:57.247Z,10.98
2022-09-15T20:56:27.096Z,11.05
2022-09-15T20:58:56.719Z,12.10
2022-09-15T21:01:29.863Z,10.95
2022-09-15T21:03:57.140Z,11.82
2022-09-15T21:06:26.298Z,10.85
2022-09-15T21:08:56.801Z,10.55
2022-09-15T21:11:26.711Z,10.60
2022-09-15T21:13:55.048Z,11.15
2022-09-15T21:16:24.698Z,10.23
2022-09-15T21:18:52.366Z,10.02
2022-09-15T21:21:31.178Z,10.93
2022-09-15T21:24:06.306Z,10.73
2022-09-15T21:26:35.637Z,10.27
2022-09-15T21:29:03.041Z,11.20
2022-09-15T21:31:32.855Z,10.27
2022-09-15T21:34:00.539Z,9.65
2022-09-15T21:36:30.338Z,9.50
2022-09-15T21:39:00.193Z,9.00
2022-09-15T21:41:31.842Z,8.40
2022-09-15T21:43:59.407Z,7.40
2022-09-15T21:46:29.045Z,7.30
2022-09-15T21:48:58.269Z,6.45
2022-09-15T21:51:27.120Z,6.22
2022-09-15T21:53:56.294Z,7.03
2022-09-15T21:56:24.478Z,6.53
2022-09-15T21:58:51.810Z,6.95
2022-09-15T22:01:24.302Z,8.45
2022-09-15T22:03:58.635Z,16.17
2022-09-15T22:06:30.315Z,34.63
2022-09-15T22:08:59.575Z,34.50
2022-09-15T22:11:27.102Z,24.90
2022-09-15T22:13:54.429Z,24.15
2022-09-15T22:16:24.453Z,29.33
2022-09-15T22:18:52.652Z,36.17
2022-09-15T22:21:22.557Z,36.88
2022-09-15T22:23:52.013Z,31.80
2022-09-15T22:26:21.468Z,31.70
2022-09-15T22:28:48.909Z,29.40
2022-09-15T22:31:18.005Z,35.38
2022-09-15T22:33:46.142Z,27.30
2022-09-15T22:36:15.528Z,33.13
2022-09-15T22:38:42.956Z,29.13
2022-09-15T22:41:13.610Z,29.80
2022-09-15T22:43:43.038Z,27.30
2022-09-15T22:46:13.666Z,22.92
2022-09-15T22:48:43.510Z,20.92
2022-09-15T22:51:11.738Z,19.23
2022-09-15T22:53:39.232Z,20.08
2022-09-15T22:56:12.033Z,16.05
2022-09-15T22:58:43.514Z,14.88
2022-09-15T23:01:17.025Z,12.30
2022-09-15T23:03:47.629Z,13.23
2022-09-15T23:06:14.855Z,12.23
2022-09-15T23:08:42.052Z,9.95
2022-09-15T23:11:12.958Z,9.27
2022-09-15T23:13:41.264Z,9.18
2022-09-15T23:16:09.372Z,9.63
2022-09-15T23:18:37.120Z,9.45
2022-09-15T23:21:09.817Z,9.23
2022-09-15T23:23:39.188Z,8.88
2022-09-15T23:26:10.150Z,9.05
2022-09-15T23:28:39.300Z,9.35
2022-09-15T23:31:07.337Z,9.35
2022-09-15T23:33:34.806Z,9.23
2022-09-15T23:36:03.636Z,8.90
2022-09-15T23:38:31.086Z,9.82
2022-09-15T23:40:58.138Z,9.85
2022-09-15T23:43:25.370Z,10.07
2022-09-15T23:45:53.616Z,9.75
2022-09-15T23:48:21.034Z,10.05
2022-09-15T23:50:48.431Z,10.10
2022-09-15T23:53:15.547Z,10.73
2022-09-15T23:55:42.615Z,10.02
2022-09-15T23:58:11.208Z,9.60
